| time (UTC) | temp F | wind direction | speed knots | gust knots | rain 1hr in | rain 24hr in | rain mn in | humidity % | barometer mb |
| 20260503230415 | 60 | 181 | 5.2 | 7.8 | 0.00 | 0.00 | 0.00 | 56 | 1009.2 |
| 20260503225914 | 60 | 173 | 5.2 | 8.7 | 0.00 | 0.00 | 0.00 | 55 | 1008.9 |
| 20260503225409 | 60 | 204 | 4.3 | 8.7 | 0.00 | 0.00 | 0.00 | 55 | 1009.2 |
| 20260503224906 | 60 | 230 | 6.1 | 13.9 | 0.00 | 0.00 | 0.00 | 54 | 1009.3 |
| 20260503224403 | 60 | 199 | 4.3 | 11.3 | 0.00 | 0.00 | 0.00 | 55 | 1009.5 |
| 20260503223900 | 60 | 213 | 7.8 | 9.6 | 0.00 | 0.00 | 0.00 | 53 | 1009.8 |
| 20260503223358 | 60 | 205 | 6.1 | 8.7 | 0.00 | 0.00 | 0.00 | 54 | 1009.7 |
| 20260503222853 | 60 | 218 | 7.8 | 13.0 | 0.00 | 0.00 | 0.00 | 53 | 1009.6 |
| 20260503222352 | 60 | 216 | 7.0 | 11.3 | 0.00 | 0.00 | 0.00 | 51 | 1009.6 |
| 20260503221850 | 60 | 189 | 3.5 | 8.7 | 0.00 | 0.00 | 0.00 | 52 | 1009.3 |
| 20260503221348 | 60 | 222 | 12.2 | 13.9 | 0.00 | 0.00 | 0.00 | 50 | 1009.6 |
| 20260503220844 | 60 | 216 | 7.8 | 13.9 | 0.00 | 0.00 | 0.00 | 50 | 1009.6 |
| 20260503220341 | 60 | 212 | 7.0 | 13.9 | 0.00 | 0.00 | 0.00 | 50 | 1009.6 |
| 20260503215838 | 60 | 222 | 4.3 | 7.0 | 0.00 | 0.00 | 0.00 | 51 | 1009.8 |
| 20260503215335 | 60 | 205 | 0.9 | 11.3 | 0.00 | 0.00 | 0.00 | 52 | 1009.7 |
| 20260503214832 | 60 | 191 | 6.1 | 9.6 | 0.00 | 0.00 | 0.00 | 50 | 1009.6 |
| 20260503214330 | 60 | 210 | 8.7 | 9.6 | 0.00 | 0.00 | 0.00 | 50 | 1009.7 |
| 20260503213827 | 60 | 196 | 9.6 | 14.8 | 0.00 | 0.00 | 0.00 | 50 | 1009.5 |
| 20260503213325 | 60 | 200 | 10.4 | 13.9 | 0.00 | 0.00 | 0.00 | 51 | 1009.6 |
| 20260503212821 | 60 | 211 | 10.4 | 13.9 | 0.00 | 0.00 | 0.00 | 51 | 1009.7 |
| 20260503212319 | 60 | 192 | 7.0 | 11.3 | 0.00 | 0.00 | 0.00 | 51 | 1009.6 |
| 20260503211816 | 61 | 220 | 7.8 | 11.3 | 0.00 | 0.00 | 0.00 | 50 | 1010.2 |
| 20260503211313 | 60 | 216 | 17.4 | 19.1 | 0.00 | 0.00 | 0.00 | 49 | 1010.2 |
| 20260503210813 | 60 | 204 | 7.8 | 18.2 | 0.00 | 0.00 | 0.00 | 51 | 1010.5 |
| 20260503210311 | 60 | 201 | 7.8 | 14.8 | 0.00 | 0.00 | 0.00 | 51 | 1010.4 |
| 20260503205806 | 60 | 207 | 13.9 | 18.2 | 0.00 | 0.00 | 0.00 | 47 | 1010.5 |
| 20260503205304 | 60 | 192 | 11.3 | 16.5 | 0.00 | 0.00 | 0.00 | 48 | 1010.6 |
| 20260503204759 | 60 | 181 | 12.2 | 16.5 | 0.00 | 0.00 | 0.00 | 48 | 1010.8 |
| 20260503204257 | 61 | 226 | 8.7 | 14.8 | 0.00 | 0.00 | 0.00 | 49 | 1010.7 |
| 20260503203754 | 61 | 181 | 4.3 | 11.3 | 0.00 | 0.00 | 0.00 | 50 | 1011.1 |
| 20260503203251 | 61 | 209 | 4.3 | 14.8 | 0.00 | 0.00 | 0.00 | 50 | 1010.9 |
| 20260503202748 | 61 | 208 | 11.3 | 13.9 | 0.00 | 0.00 | 0.00 | 48 | 1011.0 |
| 20260503202246 | 61 | 228 | 9.6 | 15.6 | 0.00 | 0.00 | 0.00 | 48 | 1011.2 |
| 20260503201744 | 61 | 221 | 7.8 | 15.6 | 0.00 | 0.00 | 0.00 | 47 | 1011.5 |
| 20260503201241 | 61 | 232 | 9.6 | 13.0 | 0.00 | 0.00 | 0.00 | 46 | 1011.8 |
| 20260503200737 | 62 | 224 | 15.6 | 19.1 | 0.00 | 0.00 | 0.00 | 46 | 1011.8 |
| 20260503200233 | 61 | 206 | 13.0 | 15.6 | 0.00 | 0.00 | 0.00 | 46 | 1011.9 |
| 20260503195731 | 61 | 210 | 11.3 | 14.8 | 0.00 | 0.00 | 0.00 | 46 | 1011.9 |
| 20260503195227 | 61 | 199 | 8.7 | 13.0 | 0.00 | 0.00 | 0.00 | 46 | 1012.5 |
| 20260503194726 | 60 | 247 | 7.8 | 15.6 | 0.00 | 0.00 | 0.00 | 46 | 1012.6 |
| 20260503194221 | 60 | 225 | 7.8 | 19.1 | 0.00 | 0.00 | 0.00 | 47 | 1012.8 |
| 20260503193717 | 60 | 256 | 8.7 | 12.2 | 0.00 | 0.00 | 0.00 | 46 | 1013.0 |
| 20260503193213 | 60 | 230 | 7.8 | 12.2 | 0.00 | 0.00 | 0.00 | 46 | 1013.2 |
| 20260503192709 | 61 | 212 | 10.4 | 15.6 | 0.00 | 0.00 | 0.00 | 48 | 1013.2 |
| 20260503192204 | 61 | 226 | 8.7 | 12.2 | 0.00 | 0.00 | 0.00 | 46 | 1013.4 |
| 20260503191701 | 61 | 221 | 10.4 | 13.9 | 0.00 | 0.00 | 0.00 | 43 | 1013.3 |
| 20260503191158 | 61 | 214 | 14.8 | 18.2 | 0.00 | 0.00 | 0.00 | 45 | 1013.4 |
| 20260503190655 | 60 | 212 | 6.1 | 12.2 | 0.00 | 0.00 | 0.00 | 45 | 1013.2 |
| 20260503190152 | 60 | 205 | 8.7 | 16.5 | 0.00 | 0.00 | 0.00 | 45 | 1013.2 |
| 20260503185649 | 60 | 217 | 12.2 | 14.8 | 0.00 | 0.00 | 0.00 | 47 | 1013.6 |
| 20260503185144 | 60 | 266 | 7.8 | 9.6 | 0.00 | 0.00 | 0.00 | 46 | 1013.6 |
| 20260503184639 | 60 | 215 | 15.6 | 20.0 | 0.00 | 0.00 | 0.00 | 43 | 1013.6 |
| 20260503184136 | 61 | 212 | 6.1 | 13.0 | 0.00 | 0.00 | 0.00 | 45 | 1013.2 |
| 20260503183632 | 61 | 238 | 13.0 | 18.2 | 0.00 | 0.00 | 0.00 | 48 | 1013.2 |
| 20260503183130 | 61 | 249 | 8.7 | 16.5 | 0.00 | 0.00 | 0.00 | 47 | 1013.7 |
| 20260503182628 | 60 | 228 | 9.6 | 14.8 | 0.00 | 0.00 | 0.00 | 47 | 1013.4 |
| 20260503182126 | 60 | 195 | 7.8 | 13.0 | 0.00 | 0.00 | 0.00 | 48 | 1013.4 |
| 20260503181622 | 61 | 196 | 15.6 | 20.9 | 0.00 | 0.00 | 0.00 | 46 | 1013.7 |
| 20260503181119 | 61 | 261 | 9.6 | 16.5 | 0.00 | 0.00 | 0.00 | 46 | 1014.0 |
| 20260503180616 | 61 | 214 | 7.8 | 13.0 | 0.00 | 0.00 | 0.00 | 50 | 1014.0 |
| 20260503180114 | 61 | 201 | 13.9 | 15.6 | 0.00 | 0.00 | 0.00 | 48 | 1014.1 |
| 20260503175611 | 60 | 221 | 11.3 | 16.5 | 0.00 | 0.00 | 0.00 | 50 | 1014.4 |
| 20260503175108 | 61 | 255 | 9.6 | 18.2 | 0.00 | 0.00 | 0.00 | 49 | 1014.5 |
| 20260503174605 | 61 | 191 | 9.6 | 14.8 | 0.00 | 0.00 | 0.00 | 48 | 1014.7 |
| 20260503174101 | 60 | 232 | 6.1 | 11.3 | 0.00 | 0.00 | 0.00 | 49 | 1014.8 |
| 20260503173556 | 61 | 216 | 13.9 | 18.2 | 0.00 | 0.00 | 0.00 | 50 | 1014.8 |
| 20260503173053 | 60 | 239 | 7.0 | 12.2 | 0.00 | 0.00 | 0.00 | 49 | 1014.9 |
| 20260503172550 | 60 | 222 | 7.8 | 14.8 | 0.00 | 0.00 | 0.00 | 51 | 1015.2 |
| 20260503172048 | 60 | 155 | 8.7 | 13.0 | 0.00 | 0.00 | 0.00 | 50 | 1015.4 |
| 20260503171544 | 60 | 235 | 7.0 | 9.6 | 0.00 | 0.00 | 0.00 | 52 | 1015.4 |
| 20260503171041 | 60 | 214 | 10.4 | 20.0 | 0.00 | 0.00 | 0.00 | 50 | 1015.4 |
| 20260503170537 | 59 | 195 | 10.4 | 14.8 | 0.00 | 0.00 | 0.00 | 50 | 1015.5 |
| 20260503150930 | 55 | 192 | 8.7 | 14.8 | 0.00 | 0.00 | 0.00 | 58 | 1016.9 |
| 20260503150427 | 55 | 247 | 7.8 | 11.3 | 0.00 | 0.00 | 0.00 | 54 | 1017.2 |
| 20260503131320 | 47 | 196 | 4.3 | 7.8 | 0.00 | 0.00 | 0.00 | 70 | 1017.3 |
| 20260503130817 | 47 | 196 | 4.3 | 8.7 | 0.00 | 0.00 | 0.00 | 70 | 1017.4 |
| 20260503130315 | 46 | 196 | 7.0 | 8.7 | 0.00 | 0.00 | 0.00 | 72 | 1017.4 |
| 20260503110708 | 38 | 215 | 3.5 | 5.2 | 0.00 | 0.00 | 0.00 | 83 | 1017.1 |
| 20260503110205 | 37 | 196 | 2.6 | 5.2 | 0.00 | 0.00 | 0.00 | 84 | 1017.1 |
| 20260503100132 | 37 | 215 | 2.6 | 3.5 | 0.00 | 0.00 | 0.00 | 83 | 1016.8 |
| 20260503081521 | 38 | 215 | 2.6 | 2.6 | 0.00 | 0.00 | 0.00 | 83 | 1016.9 |
| 20260503081019 | 38 | 210 | 1.7 | 3.5 | 0.00 | 0.00 | 0.00 | 81 | 1017.2 |
| 20260503080514 | 38 | 211 | 4.3 | 5.2 | 0.00 | 0.00 | 0.00 | 82 | 1017.3 |
| 20260503072448 | 38 | 206 | 0.9 | 1.7 | 0.00 | 0.00 | 0.00 | 83 | 1017.0 |
| 20260503071945 | 38 | 202 | 0.9 | 1.7 | 0.00 | 0.00 | 0.00 | 82 | 1017.1 |
| 20260503071442 | 38 | 198 | 2.6 | 3.5 | 0.00 | 0.00 | 0.00 | 81 | 1017.1 |
| 20260503070938 | 37 | 198 | 1.7 | 1.7 | 0.00 | 0.00 | 0.00 | 83 | 1017.0 |
| 20260503070435 | 37 | 208 | 0.9 | 1.7 | 0.00 | 0.00 | 0.00 | 86 | 1017.2 |
| 20260503054849 | 35 | 196 | 0.0 | 0.0 | 0.00 | 0.00 | 0.00 | 93 | 1017.5 |
| 20260503054345 | 35 | 194 | 0.0 | 0.0 | 0.00 | 0.00 | 0.00 | 92 | 1017.4 |
| 20260503053843 | 36 | 194 | 0.0 | 0.0 | 0.00 | 0.00 | 0.00 | 92 | 1017.4 |
| 20260503053341 | 36 | 194 | 0.0 | 0.0 | 0.00 | 0.00 | 0.00 | 92 | 1017.6 |
| 20260503052837 | 36 | 194 | 0.0 | 0.0 | 0.00 | 0.00 | 0.00 | 91 | 1017.6 |
| 20260503052334 | 36 | 193 | 0.0 | 0.0 | 0.00 | 0.00 | 0.00 | 91 | 1017.6 |
| 20260503051830 | 36 | 191 | 0.0 | 0.0 | 0.00 | 0.00 | 0.00 | 90 | 1017.5 |
| 20260503051326 | 37 | 190 | 0.0 | 0.0 | 0.00 | 0.00 | 0.00 | 90 | 1017.7 |
| 20260503050823 | 36 | 190 | 0.0 | 0.0 | 0.00 | 0.00 | 0.00 | 90 | 1017.6 |
| 20260503050320 | 37 | 189 | 0.0 | 0.0 | 0.00 | 0.00 | 0.00 | 89 | 1017.6 |
| 20260503045818 | 37 | 189 | 0.0 | 0.0 | 0.00 | 0.00 | 0.00 | 89 | 1017.5 |
| 20260503045315 | 37 | 190 | 0.0 | 0.0 | 0.00 | 0.00 | 0.00 | 89 | 1017.6 |
| 20260503044811 | 37 | 191 | 0.0 | 0.0 | 0.00 | 0.00 | 0.00 | 88 | 1017.6 |
| 20260503044308 | 37 | 192 | 0.0 | 0.0 | 0.00 | 0.00 | 0.00 | 88 | 1017.7 |
| 20260503043805 | 37 | 191 | 0.0 | 0.0 | 0.00 | 0.00 | 0.00 | 87 | 1017.7 |
| 20260503043302 | 37 | 191 | 0.0 | 0.0 | 0.00 | 0.00 | 0.00 | 88 | 1017.5 |
| 20260503042758 | 37 | 192 | 0.0 | 0.0 | 0.00 | 0.00 | 0.00 | 88 | 1017.6 |
| 20260503042255 | 38 | 191 | 0.0 | 0.0 | 0.00 | 0.00 | 0.00 | 87 | 1017.7 |
| 20260503041751 | 37 | 189 | 0.0 | 0.0 | 0.00 | 0.00 | 0.00 | 87 | 1017.8 |
| 20260503041249 | 38 | 180 | 0.0 | 0.0 | 0.00 | 0.00 | 0.00 | 87 | 1017.8 |
| 20260503040746 | 38 | 185 | 0.0 | 0.0 | 0.00 | 0.00 | 0.00 | 85 | 1017.4 |
| 20260503040244 | 38 | 191 | 0.0 | 0.0 | 0.00 | 0.00 | 0.00 | 84 | 1017.8 |
| 20260503035740 | 38 | 199 | 0.0 | 0.0 | 0.00 | 0.00 | 0.00 | 84 | 1017.6 |
| 20260503035238 | 38 | 199 | 0.0 | 0.0 | 0.00 | 0.00 | 0.00 | 85 | 1017.8 |
| 20260503034735 | 38 | 202 | 0.0 | 0.0 | 0.00 | 0.00 | 0.00 | 86 | 1017.7 |
| 20260503034232 | 39 | 203 | 0.0 | 0.0 | 0.00 | 0.00 | 0.00 | 85 | 1017.8 |
| 20260503033729 | 39 | 204 | 0.0 | 0.0 | 0.00 | 0.00 | 0.00 | 85 | 1017.7 |
| 20260503033226 | 39 | 205 | 0.0 | 0.0 | 0.00 | 0.00 | 0.00 | 82 | 1017.5 |
| 20260503032725 | 39 | 204 | 0.0 | 0.0 | 0.00 | 0.00 | 0.00 | 84 | 1017.8 |
| 20260503032223 | 39 | 204 | 0.0 | 0.0 | 0.00 | 0.00 | 0.00 | 84 | 1017.6 |
| 20260503031720 | 39 | 203 | 0.0 | 0.0 | 0.00 | 0.00 | 0.00 | 83 | 1017.8 |
| 20260503031218 | 39 | 202 | 0.0 | 0.0 | 0.00 | 0.00 | 0.00 | 80 | 1017.7 |
| 20260503030714 | 40 | 202 | 0.0 | 0.0 | 0.00 | 0.00 | 0.00 | 79 | 1017.7 |
| 20260503030210 | 40 | 205 | 0.0 | 0.0 | 0.00 | 0.00 | 0.00 | 77 | 1017.8 |
| 20260503025707 | 40 | 204 | 0.0 | 0.0 | 0.00 | 0.00 | 0.00 | 79 | 1017.8 |
| 20260503025205 | 40 | 203 | 0.0 | 0.0 | 0.00 | 0.00 | 0.00 | 78 | 1017.7 |
| 20260503024701 | 40 | 203 | 0.0 | 0.0 | 0.00 | 0.00 | 0.00 | 78 | 1017.8 |
| 20260503024159 | 40 | 203 | 0.0 | 0.0 | 0.00 | 0.00 | 0.00 | 77 | 1017.7 |
| 20260503023655 | 41 | 203 | 0.0 | 0.0 | 0.00 | 0.00 | 0.00 | 77 | 1017.6 |
| 20260503023152 | 41 | 207 | 0.0 | 0.0 | 0.00 | 0.00 | 0.00 | 77 | 1017.8 |
| 20260503022648 | 41 | 207 | 0.0 | 0.0 | 0.00 | 0.00 | 0.00 | 80 | 1017.6 |
| 20260503022148 | 41 | 207 | 0.0 | 0.0 | 0.00 | 0.00 | 0.00 | 75 | 1017.7 |
| 20260503021645 | 40 | 207 | 0.0 | 0.0 | 0.00 | 0.00 | 0.00 | 72 | 1017.5 |
| 20260503021142 | 40 | 207 | 0.0 | 0.0 | 0.00 | 0.00 | 0.00 | 76 | 1017.5 |
| 20260503020639 | 41 | 207 | 0.0 | 0.0 | 0.00 | 0.00 | 0.00 | 75 | 1017.6 |
| 20260503020136 | 42 | 208 | 0.0 | 0.0 | 0.00 | 0.00 | 0.00 | 73 | 1017.4 |
| 20260503015633 | 42 | 207 | 0.0 | 0.0 | 0.00 | 0.00 | 0.00 | 70 | 1017.6 |
| 20260503015130 | 42 | 207 | 0.0 | 0.0 | 0.00 | 0.00 | 0.00 | 74 | 1017.4 |
| 20260503014626 | 43 | 209 | 0.0 | 0.0 | 0.00 | 0.00 | 0.00 | 72 | 1017.4 |
| 20260503014124 | 43 | 208 | 0.0 | 0.0 | 0.00 | 0.00 | 0.00 | 68 | 1017.4 |
| 20260503013621 | 43 | 216 | 0.0 | 0.0 | 0.00 | 0.00 | 0.00 | 70 | 1017.3 |
| 20260503013119 | 42 | 205 | 0.0 | 0.0 | 0.00 | 0.00 | 0.00 | 71 | 1017.3 |
| 20260503012616 | 44 | 206 | 0.0 | 0.0 | 0.00 | 0.00 | 0.00 | 69 | 1017.2 |
| 20260503012112 | 44 | 208 | 0.0 | 0.0 | 0.00 | 0.00 | 0.00 | 65 | 1016.9 |
| 20260503011609 | 45 | 208 | 0.0 | 0.0 | 0.00 | 0.00 | 0.00 | 61 | 1017.0 |
| 20260503011106 | 45 | 218 | 0.0 | 0.0 | 0.00 | 0.00 | 0.00 | 61 | 1016.9 |
| 20260503010602 | 45 | 231 | 0.0 | 0.0 | 0.00 | 0.00 | 0.00 | 62 | 1016.9 |
| 20260503010100 | 45 | 355 | 0.0 | 0.0 | 0.00 | 0.00 | 0.00 | 62 | 1017.0 |
| 20260503005557 | 45 | 355 | 0.0 | 0.0 | 0.00 | 0.00 | 0.00 | 65 | 1017.0 |
| 20260503005054 | 46 | 355 | 0.0 | 0.0 | 0.00 | 0.00 | 0.00 | 60 | 1017.0 |
| 20260503004550 | 47 | 355 | 0.0 | 0.0 | 0.00 | 0.00 | 0.00 | 58 | 1017.0 |
| 20260503004049 | 48 | 355 | 0.0 | 0.0 | 0.00 | 0.00 | 0.00 | 55 | 1017.0 |
| 20260503003545 | 48 | 355 | 0.0 | 0.0 | 0.00 | 0.00 | 0.00 | 54 | 1016.9 |
| 20260503003042 | 49 | 355 | 0.0 | 0.0 | 0.00 | 0.00 | 0.00 | 53 | 1016.9 |
| 20260503002539 | 49 | 355 | 0.0 | 0.0 | 0.00 | 0.00 | 0.00 | 53 | 1017.0 |
| 20260503002036 | 50 | 355 | 0.0 | 0.0 | 0.00 | 0.00 | 0.00 | 47 | 1017.0 |
| 20260503001532 | 51 | 355 | 0.0 | 0.0 | 0.00 | 0.00 | 0.00 | 47 | 1016.9 |
| 20260503001030 | 51 | 355 | 0.0 | 0.9 | 0.00 | 0.00 | 0.00 | 46 | 1016.9 |
| 20260503000527 | 51 | 355 | 0.0 | 0.9 | 0.00 | 0.00 | 0.00 | 45 | 1016.8 |
| 20260503000024 | 52 | 12 | 2.6 | 3.5 | 0.00 | 0.00 | 0.00 | 44 | 1017.1 |
| 20260502235520 | 52 | 23 | 1.7 | 3.5 | 0.00 | 0.00 | 0.00 | 44 | 1016.8 |
| 20260502235018 | 52 | 52 | 3.5 | 5.2 | 0.00 | 0.00 | 0.00 | 41 | 1016.9 |
| 20260502234514 | 53 | 10 | 2.6 | 5.2 | 0.00 | 0.00 | 0.00 | 40 | 1017.0 |
| 20260502234012 | 53 | 20 | 4.3 | 6.1 | 0.00 | 0.00 | 0.00 | 39 | 1016.9 |
| 20260502233512 | 53 | 25 | 4.3 | 7.0 | 0.00 | 0.00 | 0.00 | 38 | 1016.9 |
| 20260502233010 | 53 | 16 | 5.2 | 6.1 | 0.00 | 0.00 | 0.00 | 39 | 1017.1 |
| 20260502232506 | 53 | 23 | 3.5 | 7.0 | 0.00 | 0.00 | 0.00 | 40 | 1016.9 |
| 20260502232003 | 53 | 20 | 5.2 | 7.8 | 0.00 | 0.00 | 0.00 | 39 | 1017.1 |
| 20260502231500 | 53 | 11 | 1.7 | 7.0 | 0.00 | 0.00 | 0.00 | 42 | 1016.8 |
| 20260502230958 | 52 | 46 | 2.6 | 8.7 | 0.00 | 0.00 | 0.00 | 41 | 1016.9 |